Time;durP1;ratioP1;P1;durP2;ratioP2;P2;SDS_P1;SDS_P2;PMS_P1;PMS_P2;Temp;Humidity;BMP_temperature;BMP_pressure;BME280_temperature;BME280_humidity;BME280_pressure;Samples;Min_cycle;Max_cycle;Signal;HPM_P1;HPM_P2
2022/07/25 00:00:39;;;;;;;3.45;2.88;;;;;;;23.57;100.00;101013.47;2614774;36;20030;-50
2022/07/25 00:03:08;;;;;;;4.10;2.85;;;;;;;23.47;100.00;101004.00;2614485;36;20034;-48
2022/07/25 00:05:36;;;;;;;4.43;2.78;;;;;;;23.55;100.00;100995.50;2614927;36;20062;-48
2022/07/25 00:08:07;;;;;;;3.53;2.88;;;;;;;23.40;100.00;100991.13;2615026;31;20037;-49
2022/07/25 00:10:35;;;;;;;4.18;2.90;;;;;;;23.39;100.00;100983.13;2614338;36;20038;-49
2022/07/25 00:13:03;;;;;;;4.50;2.80;;;;;;;23.59;100.00;100994.03;2614771;36;20078;-51
2022/07/25 00:15:32;;;;;;;5.20;3.60;;;;;;;23.60;100.00;100987.44;2615482;31;20034;-47
2022/07/25 00:18:00;;;;;;;4.43;3.47;;;;;;;23.54;100.00;100978.19;2614481;36;20073;-48
2022/07/25 00:20:29;;;;;;;6.05;3.45;;;;;;;23.50;100.00;100979.69;2615083;36;20063;-49
2022/07/25 00:22:57;;;;;;;5.65;3.40;;;;;;;23.50;100.00;100976.94;2614360;36;20544;-48
2022/07/25 00:25:28;;;;;;;4.20;3.38;;;;;;;23.66;100.00;100971.97;2614972;36;20035;-49
2022/07/25 00:27:56;;;;;;;5.45;3.60;;;;;;;23.44;100.00;100967.66;2614813;36;20027;-48
2022/07/25 00:30:25;;;;;;;4.85;3.53;;;;;;;23.52;100.00;100963.00;2615212;36;20063;-48
2022/07/25 00:32:53;;;;;;;5.45;3.20;;;;;;;23.48;100.00;100964.47;2614778;36;20038;-48
2022/07/25 00:35:21;;;;;;;4.75;3.35;;;;;;;23.32;100.00;100954.84;2614702;36;20554;-48
2022/07/25 00:37:49;;;;;;;4.80;3.63;;;;;;;23.49;100.00;100955.19;2615204;36;20066;-48
2022/07/25 00:40:18;;;;;;;5.57;3.92;;;;;;;23.62;100.00;100941.38;2615403;36;20034;-47
2022/07/25 00:42:49;;;;;;;4.80;3.83;;;;;;;23.53;100.00;100939.97;2614678;36;20040;-50
2022/07/25 00:45:17;;;;;;;7.50;3.72;;;;;;;23.41;100.00;100943.38;2615754;36;20035;-48
2022/07/25 00:47:45;;;;;;;4.68;3.42;;;;;;;23.41;100.00;100940.66;2614417;31;20059;-48
2022/07/25 00:50:13;;;;;;;4.43;3.67;;;;;;;23.46;100.00;100939.97;2615089;31;20071;-50
2022/07/25 00:52:42;;;;;;;4.20;3.58;;;;;;;23.52;100.00;100933.59;2614709;36;20563;-47
2022/07/25 00:55:11;;;;;;;5.30;4.10;;;;;;;23.33;100.00;100932.66;2615228;36;20065;-48
2022/07/25 00:57:39;;;;;;;;;;;;;;;23.38;100.00;100930.09;2614928;36;20041;-49
2022/07/25 01:00:13;;;;;;;4.72;3.83;;;;;;;23.36;100.00;100926.72;2615006;36;19950;-48
2022/07/25 01:02:42;;;;;;;5.97;4.38;;;;;;;23.30;100.00;100924.00;2614151;36;20034;-49
2022/07/25 01:05:12;;;;;;;4.88;3.50;;;;;;;23.40;100.00;100914.22;2614849;36;20030;-53
2022/07/25 01:07:41;;;;;;;4.85;4.18;;;;;;;23.40;100.00;100914.22;2614811;36;20038;-48
2022/07/25 01:10:10;;;;;;;3.92;3.35;;;;;;;23.37;100.00;100911.94;2614706;36;20062;-48
2022/07/25 01:12:53;;;;;;;7.78;3.63;;;;;;;23.24;100.00;100896.34;2615272;36;20428;-48
2022/07/25 01:15:25;;;;;;;7.45;4.68;;;;;;;23.27;100.00;100892.34;2616144;31;20045;-52
2022/07/25 01:17:54;;;;;;;5.03;4.22;;;;;;;23.26;100.00;100888.75;2614515;31;20045;-48
2022/07/25 01:20:26;;;;;;;6.25;4.22;;;;;;;23.31;100.00;100890.84;2614606;31;20038;-46
2022/07/25 01:22:55;;;;;;;5.40;3.83;;;;;;;23.28;100.00;100899.53;2614052;36;20042;-49
2022/07/25 01:25:24;;;;;;;8.73;4.25;;;;;;;23.37;100.00;100892.69;2615199;36;20031;-48
2022/07/25 01:27:53;;;;;;;;;;;;;;;23.39;100.00;100885.06;2614695;36;20089;-53
2022/07/25 01:30:23;;;;;;;6.75;4.50;;;;;;;23.41;100.00;100885.72;2614870;36;19970;-48
2022/07/25 01:32:51;;;;;;;5.43;3.90;;;;;;;23.41;100.00;100896.69;2613733;36;20035;-52
2022/07/25 01:35:20;;;;;;;6.50;4.50;;;;;;;23.38;100.00;100893.53;2615243;36;20419;-48
2022/07/25 01:37:51;;;;;;;7.13;4.53;;;;;;;23.48;100.00;100884.81;2614742;36;20067;-49
2022/07/25 01:40:19;;;;;;;6.53;4.10;;;;;;;23.57;100.00;100884.34;2615249;36;20065;-52
2022/07/25 01:42:48;;;;;;;7.63;5.28;;;;;;;23.47;100.00;100880.38;2614436;31;20034;-48
2022/07/25 01:45:16;;;;;;;6.85;4.25;;;;;;;23.51;100.00;100878.88;2615233;36;20065;-50
2022/07/25 01:47:44;;;;;;;5.30;4.15;;;;;;;23.47;100.00;100880.38;2614386;36;20548;-50
2022/07/25 01:50:12;;;;;;;4.97;4.30;;;;;;;23.73;100.00;100888.47;2614690;36;20037;-48
2022/07/25 01:52:41;;;;;;;5.32;4.03;;;;;;;23.54;100.00;100890.28;2614213;36;20042;-49
2022/07/25 01:55:12;;;;;;;6.45;4.18;;;;;;;23.39;100.00;100906.22;2615041;36;20034;-49
2022/07/25 01:57:41;;;;;;;5.82;4.20;;;;;;;23.27;100.00;100893.16;2615889;36;20042;-51
2022/07/25 02:00:12;;;;;;;;;;;;;;;23.14;100.00;100887.75;2615660;36;20034;-48
2022/07/25 02:02:40;;;;;;;7.72;4.68;;;;;;;22.97;100.00;100894.75;2614951;36;20412;-48
2022/07/25 02:05:09;;;;;;;5.82;4.30;;;;;;;22.79;100.00;100890.84;2615974;36;20034;-51
2022/07/25 02:07:38;;;;;;;7.25;4.82;;;;;;;22.54;100.00;100871.47;2615647;31;20074;-48
2022/07/25 02:10:09;;;;;;;7.63;5.32;;;;;;;22.58;100.00;100872.75;2615842;36;20162;-48
2022/07/25 02:12:39;;;;;;;8.68;5.28;;;;;;;22.55;100.00;100878.66;2615604;36;20030;-50
2022/07/25 02:15:13;;;;;;;6.32;4.10;;;;;;;22.43;100.00;100863.94;2616571;54;20034;-47
2022/07/25 02:17:41;;;;;;;7.72;5.43;;;;;;;22.52;100.00;100866.22;2615367;31;20065;-48
2022/07/25 02:20:10;;;;;;;7.18;5.20;;;;;;;22.39;100.00;100858.88;2616676;36;20045;-46
2022/07/25 02:22:39;;;;;;;7.32;4.78;;;;;;;22.29;100.00;100857.59;2615282;36;20572;-47
2022/07/25 02:25:08;;;;;;;9.00;6.78;;;;;;;22.23;100.00;100849.19;2615160;36;20057;-49
2022/07/25 02:27:36;;;;;;;6.70;5.05;;;;;;;22.19;100.00;100841.59;2614862;36;20034;-47
2022/07/25 02:30:09;;;;;;;8.10;5.50;;;;;;;22.10;100.00;100838.25;2615268;36;20034;-49
2022/07/25 02:32:37;;;;;;;7.97;5.28;;;;;;;22.16;100.00;100848.34;2615012;36;20039;-48
2022/07/25 02:35:06;;;;;;;13.18;6.13;;;;;;;22.13;100.00;100845.16;2615282;36;20034;-53
2022/07/25 02:37:35;;;;;;;8.88;5.82;;;;;;;22.07;100.00;100838.66;2615064;36;20041;-47
2022/07/25 02:40:03;;;;;;;7.05;5.20;;;;;;;22.02;100.00;100842.03;2615719;36;20030;-50
2022/07/25 02:42:31;;;;;;;6.47;4.93;;;;;;;22.00;100.00;100841.41;2615128;36;20042;-48
2022/07/25 02:45:00;;;;;;;7.30;5.00;;;;;;;22.00;100.00;100829.59;2615562;36;20053;-46
2022/07/25 02:47:31;;;;;;;6.28;4.93;;;;;;;;;;2614948;36;20034;-50
2022/07/25 02:49:59;;;;;;;8.38;5.30;;;;;;;21.80;100.00;100815.91;2615472;36;20030;-48
2022/07/25 02:52:27;;;;;;;6.53;4.47;;;;;;;21.69;100.00;100812.75;2614534;36;20038;-51
2022/07/25 02:54:55;;;;;;;7.80;5.75;;;;;;;21.70;100.00;100808.09;2616481;36;20424;-52
2022/07/25 02:57:24;;;;;;;6.80;5.20;;;;;;;21.62;100.00;100814.66;2614840;36;20082;-49
2022/07/25 02:59:52;;;;;;;7.65;5.03;;;;;;;21.62;100.00;100809.16;2615246;36;20041;-48
2022/07/25 03:02:20;;;;;;;7.18;5.10;;;;;;;21.63;100.00;100805.38;2614653;31;20050;-47
2022/07/25 03:04:51;;;;;;;8.20;5.50;;;;;;;21.54;100.00;100801.19;2615521;36;20067;-47
2022/07/25 03:07:19;;;;;;;7.25;5.28;;;;;;;21.55;100.00;100796.53;2615768;36;20423;-47
2022/07/25 03:09:47;;;;;;;6.50;4.60;;;;;;;21.58;100.00;100791.47;2616296;36;20455;-48
2022/07/25 03:12:16;;;;;;;6.82;5.85;;;;;;;21.51;100.00;100783.25;2615126;36;20038;-47
2022/07/25 03:14:44;;;;;;;7.70;5.82;;;;;;;21.35;100.00;100783.66;2615615;36;20035;-52
2022/07/25 03:17:12;;;;;;;9.27;6.28;;;;;;;21.21;100.00;100779.22;2614630;36;20122;-47
2022/07/25 03:19:41;;;;;;;8.48;5.78;;;;;;;21.13;100.00;100780.25;2615787;36;20039;-47
2022/07/25 03:22:12;;;;;;;8.23;5.43;;;;;;;21.13;100.00;100775.63;2614688;36;20067;-48
2022/07/25 03:24:40;;;;;;;10.32;6.95;;;;;;;21.17;100.00;100778.75;2615443;31;20035;-51
2022/07/25 03:27:08;;;;;;;8.60;6.07;;;;;;;21.27;100.00;100779.19;2614882;36;20077;-47
2022/07/25 03:29:37;;;;;;;8.35;5.82;;;;;;;21.21;100.00;100774.56;2615197;36;20041;-48
2022/07/25 03:32:06;;;;;;;11.52;6.90;;;;;;;21.18;100.00;100770.34;2614838;36;20369;-46
2022/07/25 03:34:35;;;;;;;9.73;6.05;;;;;;;21.16;100.00;100774.38;2616001;36;20026;-50
2022/07/25 03:37:04;;;;;;;12.27;7.65;;;;;;;21.20;100.00;100767.44;2614477;36;20034;-52
2022/07/25 03:39:35;;;;;;;;;;;;;;;21.11;100.00;100763.19;2615283;31;20030;-47
2022/07/25 03:42:03;;;;;;;10.90;6.03;;;;;;;21.19;100.00;100757.53;2615019;36;19957;-53
2022/07/25 03:44:36;;;;;;;11.88;7.85;;;;;;;21.13;100.00;100756.47;2616215;31;20479;-52
2022/07/25 03:47:05;;;;;;;10.43;7.00;;;;;;;21.27;100.00;100756.47;2614613;36;20031;-48
2022/07/25 03:49:33;;;;;;;11.90;7.40;;;;;;;21.33;100.00;100755.63;2615461;31;20057;-50
2022/07/25 03:52:02;;;;;;;9.80;7.05;;;;;;;21.34;100.00;100755.41;2615137;36;20038;-48
2022/07/25 03:54:30;;;;;;;9.80;7.05;;;;;;;21.35;100.00;100748.91;2615560;36;20034;-51
2022/07/25 03:57:01;;;;;;;8.43;6.60;;;;;;;21.28;100.00;100750.78;2615119;36;20066;-49
2022/07/25 03:59:29;;;;;;;10.35;7.18;;;;;;;21.40;100.00;100752.91;2614861;31;20552;-48
2022/07/25 04:01:57;;;;;;;11.52;7.53;;;;;;;21.30;100.00;100743.22;2614063;36;20563;-49
2022/07/25 04:04:25;;;;;;;13.70;7.75;;;;;;;21.27;100.00;100753.72;2615293;31;20138;-48
2022/07/25 04:06:54;;;;;;;12.25;8.00;;;;;;;21.27;100.00;100746.34;2613977;36;20022;-48
2022/07/25 04:09:22;;;;;;;10.15;7.88;;;;;;;21.27;100.00;100743.63;2615399;36;20031;-47
2022/07/25 04:11:50;;;;;;;10.90;8.05;;;;;;;21.22;100.00;100743.41;2614508;36;20038;-51
2022/07/25 04:14:21;;;;;;;11.60;7.53;;;;;;;21.30;100.00;100735.00;2615152;36;20123;-46
2022/07/25 04:16:50;;;;;;;12.10;7.32;;;;;;;21.42;100.00;100742.56;2614329;36;20026;-50
2022/07/25 04:19:18;;;;;;;14.30;7.30;;;;;;;21.41;100.00;100736.25;2615725;36;20126;-50
2022/07/25 04:21:46;;;;;;;12.75;7.32;;;;;;;21.48;100.00;100738.97;2614723;36;20845;-52
2022/07/25 04:24:14;;;;;;;9.27;6.80;;;;;;;21.54;100.00;100735.47;2615518;36;20037;-49
2022/07/25 04:26:43;;;;;;;8.85;7.32;;;;;;;21.59;100.00;100735.66;2614817;31;20560;-51
2022/07/25 04:29:11;;;;;;;10.18;7.72;;;;;;;21.62;100.00;100735.22;2614964;36;20038;-49
2022/07/25 04:31:42;;;;;;;11.50;7.18;;;;;;;21.62;100.00;100731.66;2614249;36;20579;-49
2022/07/25 04:34:10;;;;;;;11.02;7.30;;;;;;;21.55;100.00;100737.13;2614998;36;20073;-52
2022/07/25 04:36:39;;;;;;;10.57;7.10;;;;;;;21.53;100.00;100745.53;2614123;36;20031;-48
2022/07/25 04:39:07;;;;;;;10.73;7.43;;;;;;;21.64;100.00;100729.53;2615304;36;20035;-48
2022/07/25 04:41:35;;;;;;;12.45;7.22;;;;;;;21.69;100.00;100730.56;2614501;36;20034;-49
2022/07/25 04:44:06;;;;;;;9.82;7.25;;;;;;;21.71;100.00;100733.09;2615412;36;20042;-49
2022/07/25 04:46:34;;;;;;;11.20;7.07;;;;;;;21.72;100.00;100739.44;2614160;31;20042;-47
2022/07/25 04:49:05;;;;;;;12.68;7.53;;;;;;;21.73;100.00;100738.38;2615215;36;21042;-50
2022/07/25 04:51:33;;;;;;;10.52;7.30;;;;;;;21.80;100.00;100740.03;2615380;31;20031;-49
2022/07/25 04:54:02;;;;;;;11.88;7.57;;;;;;;21.95;100.00;100738.97;2615724;31;20058;-46
2022/07/25 04:56:30;;;;;;;10.65;7.78;;;;;;;21.89;100.00;100743.38;2614749;36;20030;-49
2022/07/25 04:58:59;;;;;;;9.10;7.13;;;;;;;21.95;100.00;100739.81;2614882;36;20085;-47
2022/07/25 05:01:27;;;;;;;10.25;8.13;;;;;;;22.01;100.00;100743.56;2614523;36;20507;-47
2022/07/25 05:03:55;;;;;;;12.90;8.18;;;;;;;22.17;100.00;100736.78;2615167;36;20067;-51
2022/07/25 05:06:26;;;;;;;11.65;7.68;;;;;;;22.18;100.00;100731.09;2614617;36;20039;-49
2022/07/25 05:08:54;;;;;;;11.75;8.60;;;;;;;22.16;100.00;100726.91;2615281;36;20061;-47
2022/07/25 05:11:25;;;;;;;13.88;8.13;;;;;;;22.26;100.00;100732.78;2615048;36;20642;-50
2022/07/25 05:13:53;;;;;;;11.80;7.70;;;;;;;22.15;100.00;100736.16;2614786;36;20046;-47
2022/07/25 05:16:22;;;;;;;11.25;8.07;;;;;;;22.30;100.00;100736.72;2614174;36;20030;-45
2022/07/25 05:18:50;;;;;;;12.60;8.77;;;;;;;22.31;100.00;100735.69;2615365;36;20022;-48
2022/07/25 05:21:18;;;;;;;11.25;8.55;;;;;;;22.21;100.00;100735.31;2614533;36;20041;-48
2022/07/25 05:23:49;;;;;;;13.18;9.68;;;;;;;22.35;100.00;100734.22;2614830;36;20031;-48
2022/07/25 05:26:17;;;;;;;15.85;9.40;;;;;;;22.28;100.00;100738.88;2614620;36;20035;-50
2022/07/25 05:28:46;;;;;;;12.95;9.30;;;;;;;22.18;100.00;100730.25;2615490;36;20030;-49
2022/07/25 05:31:14;;;;;;;14.75;9.18;;;;;;;22.17;100.00;100723.94;2614667;31;20034;-51
2022/07/25 05:33:42;;;;;;;15.50;9.70;;;;;;;22.08;100.00;100727.13;2615730;31;20034;-52
2022/07/25 05:36:11;;;;;;;17.55;9.60;;;;;;;22.09;100.00;100737.03;2615400;36;20408;-48
2022/07/25 05:38:39;;;;;;;11.50;8.65;;;;;;;22.13;100.00;100730.03;2615144;31;20065;-49
2022/07/25 05:41:10;;;;;;;14.60;8.80;;;;;;;22.03;100.00;100720.38;2615470;36;20022;-51
2022/07/25 05:43:41;;;;;;;13.50;9.30;;;;;;;22.12;100.00;100728.38;2616105;36;20535;-50
2022/07/25 05:46:09;;;;;;;15.40;9.18;;;;;;;22.08;100.00;100736.19;2615103;36;20035;-50
2022/07/25 05:48:38;;;;;;;12.30;9.15;;;;;;;22.04;100.00;100734.94;2615708;36;20023;-48
2022/07/25 05:51:06;;;;;;;14.38;10.20;;;;;;;21.97;100.00;100742.34;2615828;36;20034;-51
2022/07/25 05:53:35;;;;;;;16.50;10.52;;;;;;;22.00;100.00;100728.22;2615708;36;20038;-52
2022/07/25 05:56:04;;;;;;;16.40;9.57;;;;;;;21.85;100.00;100722.97;2615783;36;20034;-49
2022/07/25 05:58:36;;;;;;;14.63;10.65;;;;;;;21.90;100.00;100731.38;2615165;36;20551;-48
2022/07/25 06:01:04;;;;;;;15.43;10.65;;;;;;;22.04;100.00;100738.53;2616000;36;20398;-49
2022/07/25 06:03:33;;;;;;;13.75;11.23;;;;;;;22.05;100.00;100742.97;2615116;31;20030;-47
2022/07/25 06:06:01;;;;;;;13.10;9.70;;;;;;;22.18;100.00;100743.97;2615884;36;20065;-51
2022/07/25 06:08:30;;;;;;;15.68;11.35;;;;;;;22.05;100.00;100745.69;2615140;36;20034;-49
2022/07/25 06:10:59;;;;;;;15.68;10.60;;;;;;;22.03;100.00;100745.03;2615886;31;20034;-48
2022/07/25 06:13:28;;;;;;;15.10;10.70;;;;;;;22.05;100.00;100748.44;2615432;36;20034;-46
2022/07/25 06:15:59;;;;;;;16.52;10.30;;;;;;;22.16;100.00;100759.78;2615671;36;20034;-49
2022/07/25 06:18:28;;;;;;;15.43;10.00;;;;;;;22.38;100.00;100747.50;2614827;36;20046;-46
2022/07/25 06:20:56;;;;;;;13.57;10.27;;;;;;;22.43;100.00;100759.72;2615690;36;20047;-48
2022/07/25 06:23:24;;;;;;;14.77;10.23;;;;;;;22.34;100.00;100751.72;2615547;36;20042;-48
2022/07/25 06:25:53;;;;;;;13.57;10.40;;;;;;;22.48;100.00;100752.53;2615759;36;20038;-48
2022/07/25 06:28:21;;;;;;;14.00;10.02;;;;;;;22.48;100.00;100751.66;2614999;31;20041;-47
2022/07/25 06:30:50;;;;;;;15.05;10.10;;;;;;;22.62;100.00;100747.81;2615827;31;20038;-49
2022/07/25 06:33:21;;;;;;;15.38;10.43;;;;;;;22.78;100.00;100751.94;2614722;36;20038;-49
2022/07/25 06:35:49;;;;;;;11.77;9.27;;;;;;;23.06;100.00;100759.78;2615421;36;20031;-52
2022/07/25 06:38:17;;;;;;;14.35;10.32;;;;;;;23.28;100.00;100743.00;2615024;36;20039;-51
2022/07/25 06:40:45;;;;;;;14.00;9.77;;;;;;;23.54;100.00;100739.19;2615772;36;20559;-49
2022/07/25 06:43:17;;;;;;;10.95;9.00;;;;;;;23.67;100.00;100738.19;2615771;54;20037;-51
2022/07/25 06:45:46;;;;;;;10.95;8.60;;;;;;;23.77;100.00;100738.53;2616323;31;20046;-51
2022/07/25 06:48:14;;;;;;;;;;;;;;;23.88;100.00;100749.88;2614747;36;20041;-50
2022/07/25 06:50:45;;;;;;;14.55;8.98;;;;;;;24.00;100.00;100752.69;2615610;36;19973;-49
2022/07/25 06:53:14;;;;;;;10.30;7.60;;;;;;;24.40;100.00;100741.25;2615467;36;20038;-52
2022/07/25 06:55:42;;;;;;;10.55;7.80;;;;;;;24.47;100.00;100753.84;2615323;36;20031;-51
2022/07/25 06:58:11;;;;;;;8.25;6.22;;;;;;;24.45;100.00;100730.38;2614784;36;20038;-51
2022/07/25 07:00:39;;;;;;;9.38;6.63;;;;;;;24.74;100.00;100739.75;2615792;31;20038;-49
2022/07/25 07:03:07;;;;;;;11.32;6.32;;;;;;;25.09;100.00;100746.44;2614037;36;20629;-52
2022/07/25 07:05:37;;;;;;;7.53;5.80;;;;;;;25.38;100.00;100733.72;2615711;36;20407;-48
2022/07/25 07:08:08;;;;;;;6.15;4.78;;;;;;;25.58;100.00;100735.31;2615767;36;20392;-50
2022/07/25 07:10:38;;;;;;;6.72;4.75;;;;;;;25.26;100.00;100733.66;2615743;36;20615;-50
2022/07/25 07:13:09;;;;;;;6.53;4.43;;;;;;;25.65;100.00;100733.28;2615240;36;20034;-49
2022/07/25 07:15:38;;;;;;;7.47;4.97;;;;;;;24.99;100.00;100738.78;2615714;36;20038;-52
2022/07/25 07:18:07;;;;;;;7.07;4.70;;;;;;;24.73;100.00;100724.31;2614891;31;20049;-50
2022/07/25 07:20:36;;;;;;;5.95;4.38;;;;;;;24.55;100.00;100716.09;2615827;36;20046;-49
2022/07/25 07:23:04;;;;;;;6.53;4.03;;;;;;;24.52;100.00;100730.31;2615535;36;20030;-46
2022/07/25 07:25:35;;;;;;;6.13;3.53;;;;;;;24.52;100.00;100722.06;2615262;36;20037;-52
2022/07/25 07:28:05;;;;;;;5.18;3.85;;;;;;;24.53;100.00;100719.06;2614911;36;20030;-49
2022/07/25 07:30:33;;;;;;;6.03;4.35;;;;;;;24.16;100.00;100730.13;2615479;31;20050;-51
2022/07/25 07:33:01;;;;;;;;;;;;;;;24.30;100.00;100728.88;2614743;36;20555;-47
2022/07/25 07:35:30;;;;;;;6.47;4.10;;;;;;;24.51;100.00;100732.19;2614498;36;19999;-48
2022/07/25 07:37:58;;;;;;;4.72;4.05;;;;;;;24.46;100.00;100730.16;2615057;36;20551;-48
2022/07/25 07:40:26;;;;;;;9.02;4.50;;;;;;;24.30;100.00;100731.63;2615648;31;20031;-50
2022/07/25 07:43:01;;;;;;;7.22;4.35;;;;;;;24.38;100.00;100738.75;2615543;36;20455;-48
2022/07/25 07:45:29;;;;;;;6.00;3.60;;;;;;;24.09;100.00;100730.19;2615005;31;20034;-49
2022/07/25 07:47:58;;;;;;;6.25;3.47;;;;;;;24.00;100.00;100739.81;2614328;36;20069;-47
2022/07/25 07:50:28;;;;;;;4.53;2.90;;;;;;;24.07;100.00;100743.34;2615024;36;20105;-52
2022/07/25 07:52:58;;;;;;;4.05;2.67;;;;;;;24.10;100.00;100748.38;2615181;36;20030;-47
2022/07/25 07:58:20;;;;;;;3.20;2.50;;;;;;;24.33;100.00;100743.25;2614286;36;20034;-53
2022/07/25 08:00:50;;;;;;;3.55;2.40;;;;;;;24.40;100.00;100747.59;2615712;36;20035;-48
2022/07/25 08:03:20;;;;;;;2.50;1.88;;;;;;;25.02;100.00;100738.31;2614733;36;20030;-47
2022/07/25 08:05:50;;;;;;;4.53;2.22;;;;;;;25.46;100.00;100738.06;2614851;36;20053;-49
2022/07/25 08:08:19;;;;;;;2.55;1.80;;;;;;;25.83;100.00;100741.41;2615186;36;20034;-49
2022/07/25 08:10:49;;;;;;;4.07;2.10;;;;;;;25.93;100.00;100746.31;2615756;36;20424;-47
2022/07/25 08:13:22;;;;;;;2.53;1.92;;;;;;;25.77;100.00;100734.09;2614836;36;20035;-49
2022/07/25 08:15:54;;;;;;;5.72;1.90;;;;;;;25.86;100.00;100743.69;2615195;36;20038;-49
2022/07/25 08:18:23;;;;;;;3.90;1.90;;;;;;;25.85;100.00;100736.50;2614491;36;20065;-49
2022/07/25 08:20:52;;;;;;;2.80;1.60;;;;;;;25.86;100.00;100746.44;2614950;36;20046;-51
2022/07/25 08:23:21;;;;;;;2.58;1.38;;;;;;;26.09;100.00;100735.66;2615190;36;20540;-53
2022/07/25 08:25:50;;;;;;;1.80;1.60;;;;;;;25.87;100.00;100745.38;2615448;36;20648;-52
2022/07/25 08:28:21;;;;;;;;;;;;;;;25.51;100.00;100747.28;2614441;36;20038;-53
2022/07/25 08:30:49;;;;;;;2.03;1.40;;;;;;;25.18;100.00;100756.91;2615112;36;19947;-52
2022/07/25 08:33:17;;;;;;;4.35;1.45;;;;;;;25.43;100.00;100747.63;2613980;36;20030;-51
2022/07/25 08:35:52;;;;;;;3.03;1.60;;;;;;;25.92;100.00;100752.91;2614024;36;20552;-52
2022/07/25 08:38:21;;;;;;;2.95;1.45;;;;;;;26.02;100.00;100753.16;2615110;36;20045;-49
2022/07/25 08:40:49;;;;;;;;;;;;;;;26.29;100.00;100757.31;2615735;36;20522;-50
2022/07/25 08:43:20;;;;;;;3.13;1.40;;;;;;;26.38;100.00;100761.38;2614717;31;19953;-49
2022/07/25 08:45:50;;;;;;;2.45;1.30;;;;;;;26.11;100.00;100761.91;2615236;36;20459;-49
2022/07/25 08:48:20;;;;;;;3.50;1.25;;;;;;;25.87;100.00;100767.41;2612612;31;20122;-48
2022/07/25 08:50:49;;;;;;;2.20;1.00;;;;;;;26.02;100.00;100769.72;2615282;36;20417;-51
2022/07/25 08:53:19;;;;;;;2.15;1.20;;;;;;;26.03;100.00;100767.78;2614956;36;20068;-50
2022/07/25 08:55:48;;;;;;;1.70;1.17;;;;;;;25.82;100.00;100764.53;2615094;36;20045;-49
2022/07/25 08:58:18;;;;;;;2.80;1.20;;;;;;;25.36;100.00;100775.28;2614853;36;20041;-50
2022/07/25 09:00:49;;;;;;;1.83;1.10;;;;;;;25.70;100.00;100766.47;2615356;36;20087;-49
2022/07/25 09:03:17;;;;;;;2.85;1.10;;;;;;;25.92;100.00;100752.91;2614636;36;20042;-47
2022/07/25 09:05:46;;;;;;;3.15;1.20;;;;;;;26.68;100.00;100763.13;2613509;36;20621;-49
2022/07/25 09:08:16;;;;;;;;;;;;;;;25.99;100.00;100758.31;2615497;31;20516;-52
2022/07/25 09:10:48;;;;;;;4.18;0.93;;;;;;;25.98;100.00;100762.13;2615787;36;19950;-51
2022/07/25 09:13:17;;;;;;;6.30;1.15;;;;;;;26.27;100.00;100770.53;2614642;36;20030;-52
2022/07/25 09:15:50;;;;;;;3.67;1.23;;;;;;;25.86;100.00;100776.75;2614201;36;20423;-49
2022/07/25 09:18:20;;;;;;;3.47;1.10;;;;;;;26.05;100.00;100776.69;2613858;36;20432;-48
2022/07/25 09:20:51;;;;;;;4.30;1.30;;;;;;;25.91;100.00;100772.44;2613248;36;20038;-48
2022/07/25 09:23:30;;;;;;;2.60;1.10;;;;;;;25.92;100.00;100768.63;2614372;36;20038;-49
2022/07/25 09:26:05;;;;;;;3.97;1.30;;;;;;;25.91;100.00;100775.22;2613075;36;20083;-50
2022/07/25 09:28:33;;;;;;;2.65;1.30;;;;;;;25.89;100.00;100768.00;2614089;36;20121;-47
2022/07/25 09:31:04;;;;;;;3.08;1.45;;;;;;;26.15;100.00;100762.28;2613145;36;20443;-48
2022/07/25 09:33:33;;;;;;;3.78;1.20;;;;;;;26.04;100.00;100769.47;2613828;36;20037;-51
2022/07/25 09:36:12;;;;;;;4.22;1.30;;;;;;;25.85;100.00;100769.59;2612551;36;20447;-53
2022/07/25 09:38:40;;;;;;;1.70;1.20;;;;;;;26.01;100.00;100778.22;2614275;31;20038;-50
2022/07/25 09:41:09;;;;;;;1.92;1.20;;;;;;;25.35;100.00;100781.03;2614042;36;20034;-48
2022/07/25 09:43:38;;;;;;;1.63;1.27;;;;;;;24.87;100.00;100784.69;2614655;31;20034;-50
2022/07/25 09:46:10;;;;;;;2.47;1.40;;;;;;;24.69;100.00;100794.69;2614992;36;20034;-52
2022/07/25 09:48:40;;;;;;;5.15;1.52;;;;;;;24.42;100.00;100786.69;2614937;36;20065;-51
2022/07/25 09:51:09;;;;;;;3.38;1.52;;;;;;;24.75;100.00;100788.25;2614443;36;20031;-52
2022/07/25 09:53:37;;;;;;;2.00;1.33;;;;;;;25.14;100.00;100785.16;2614304;36;20054;-51
2022/07/25 09:56:06;;;;;;;3.58;1.40;;;;;;;25.44;100.00;100778.78;2615039;36;20424;-48
2022/07/25 09:58:34;;;;;;;;;;;;;;;25.45;100.00;100792.31;2614533;31;20074;-51
2022/07/25 10:01:06;;;;;;;2.22;1.30;;;;;;;25.93;100.00;100784.06;2614809;36;19973;-47
2022/07/25 10:03:49;;;;;;;2.45;1.23;;;;;;;26.53;100.00;100786.53;2613185;36;20037;-54
2022/07/25 10:06:22;;;;;;;5.43;1.40;;;;;;;26.65;100.00;100791.16;2613003;36;20069;-48
2022/07/25 10:08:52;;;;;;;8.23;1.50;;;;;;;26.83;100.00;100796.56;2614413;36;20037;-51
2022/07/25 10:11:22;;;;;;;2.60;1.23;;;;;;;27.09;100.00;100788.72;2613908;36;20038;-52
2022/07/25 10:13:50;;;;;;;4.47;1.42;;;;;;;27.35;100.00;100794.75;2614866;36;20431;-47
2022/07/25 10:16:21;;;;;;;5.13;1.20;;;;;;;27.43;100.00;100799.91;2613864;31;20030;-48
2022/07/25 10:18:54;;;;;;;5.53;1.40;;;;;;;27.69;100.00;100808.59;2615183;31;20034;-48
2022/07/25 10:21:23;;;;;;;3.55;1.63;;;;;;;27.38;100.00;100805.31;2615423;36;20443;-48
2022/07/25 10:24:01;;;;;;;5.55;1.65;;;;;;;27.06;100.00;100819.63;2615833;36;20042;-47
2022/07/25 10:26:29;;;;;;;1.92;1.15;;;;;;;27.06;100.00;100826.00;2615403;31;20026;-46
2022/07/25 10:29:00;;;;;;;4.32;1.70;;;;;;;26.78;100.00;100818.56;2614473;36;20073;-50
2022/07/25 10:31:37;;;;;;;4.15;1.50;;;;;;;26.59;100.00;100828.91;2614868;31;20030;-50
2022/07/25 10:34:12;;;;;;;6.05;1.45;;;;;;;26.28;100.00;100838.41;2615505;36;20034;-47
2022/07/25 10:36:46;;;;;;;5.18;1.55;;;;;;;26.71;100.00;100826.97;2614951;36;20023;-47
2022/07/25 10:39:16;;;;;;;3.03;1.65;;;;;;;26.87;100.00;100836.41;2615170;31;20566;-55
2022/07/25 10:41:51;;;;;;;4.07;1.50;;;;;;;27.09;100.00;100821.88;2615298;36;20030;-49
2022/07/25 10:44:19;;;;;;;2.80;1.58;;;;;;;27.06;100.00;100838.94;2615443;36;20035;-50
2022/07/25 10:46:49;;;;;;;5.18;1.60;;;;;;;27.33;100.00;100839.22;2614759;31;20038;-47
2022/07/25 10:49:26;;;;;;;6.32;1.40;;;;;;;27.62;100.00;100831.72;2615530;36;20042;-52
2022/07/25 10:51:57;;;;;;;2.70;1.30;;;;;;;27.59;100.00;100836.91;2615037;36;20023;-50
2022/07/25 10:54:26;;;;;;;4.28;1.63;;;;;;;27.82;100.00;100830.38;2616279;36;20038;-48
2022/07/25 10:56:57;;;;;;;4.18;1.67;;;;;;;27.92;100.00;100835.25;2614770;36;20061;-52
2022/07/25 10:59:30;;;;;;;3.17;1.60;;;;;;;27.18;100.00;100836.13;2616187;31;20037;-50
2022/07/25 11:01:59;;;;;;;2.45;1.70;;;;;;;26.96;100.00;100845.13;2614427;36;20062;-48
2022/07/25 11:04:29;;;;;;;;;;;;;;;26.72;100.00;100841.59;2615485;36;20030;-48
2022/07/25 11:06:59;;;;;;;4.05;1.80;;;;;;;26.24;100.00;100838.06;2615051;31;19946;-48
2022/07/25 11:09:28;;;;;;;4.82;1.63;;;;;;;26.23;100.00;100842.72;2615192;36;20030;-47
2022/07/25 11:12:00;;;;;;;5.65;1.63;;;;;;;26.47;100.00;100853.75;2614913;36;20950;-51
2022/07/25 11:14:32;;;;;;;6.68;1.63;;;;;;;26.35;100.00;100844.66;2615406;36;20053;-48
2022/07/25 11:17:13;;;;;;;4.82;1.77;;;;;;;26.93;100.00;100851.97;2614688;36;20527;-52
2022/07/25 11:19:46;;;;;;;2.95;1.58;;;;;;;27.57;100.00;100850.97;2615791;31;20078;-49
2022/07/25 11:22:14;;;;;;;3.88;1.63;;;;;;;27.23;100.00;100850.88;2614980;36;20401;-50
2022/07/25 11:24:43;;;;;;;;;;;;;;;27.15;100.00;100842.16;2615635;36;20046;-48
2022/07/25 11:27:12;;;;;;;;;;;;;;;26.53;100.00;100852.78;2615613;31;19994;-54
2022/07/25 11:29:41;;;;;;;4.82;1.63;;;;;;;26.25;100.00;100855.44;2615680;36;19996;-48